Accueil
METAR-TAF:

METAR-TAF

Aéroports :

Aérodrome de Samedan-Engadin

Saint-Moritz, Suisse

latitude: 46-32-03N, longitude: 9-53-03E, altitude: 1707 m

Observation

Le bulletin a été fait il y a 14 minutes, à 05:20 UTC
Vent calme
Température 1°C
Humidité 86%
Pression 1023 hPa
Visibilité 10 km ou plus
pas de nuages en-dessous de 1500 mètres et pas de cumulonimbus.

METAR: LSZS 240520Z AUTO 00000KT CAVOK 01/M01 Q1023

Heure: 07:34 (05:34 UTC)

Prévision

Le bulletin a été fait il y a 15 heures et 9 minutes, à 14:25 UTC
Prévision valable du 23 à 15 UTC au 23 à 24 UTC
Vent 10 kt de nord-ouest
Visibilité 10 km ou plus
Quelques nuages à une hauteur de 7000 ft
Evoluant progressivement
du 23 à 19 UTC au 23 à 22 UTC
Vent 3 kt de direction variable

TAF: LSZS 231425Z 2315/2324 32010KT 9999 FEW070 TX15/2315Z BECMG 2319/2322 VRB03KT

Observations et prévisions météorologiques de plus de 4000 aéroports (messages METAR et TAF).

Les stations disponibles sont représentées par des disques jaunes et rouges sur la carte.

Passer la souris dessus pour voir le nom de la station.

Cliquer dessus pour voir les observations et prévisions météorologiques.

Pour changer de carte: cliquez sur les boutons verts avec une croix noire pour zoomer, sur le bouton vert avec un tiret pour effectuer un zoom arrière, ou sur les flèches vertes pour les cartes adjacentes.


METAR-TAF: